sensor_id;sensor_type;location;lat;lon;timestamp;P1;durP1;ratioP1;P2;durP2;ratioP2
70433;SDS011;57876;47.792;12.960;2023-04-24T00:01:50;4.03;;;0.97;;
70433;SDS011;57876;47.792;12.960;2023-04-24T00:04:15;3.75;;;0.80;;
70433;SDS011;57876;47.792;12.960;2023-04-24T00:06:41;3.53;;;0.80;;
70433;SDS011;57876;47.792;12.960;2023-04-24T00:09:06;3.95;;;0.90;;
70433;SDS011;57876;47.792;12.960;2023-04-24T00:11:31;3.97;;;0.90;;
70433;SDS011;57876;47.792;12.960;2023-04-24T00:13:56;3.37;;;0.70;;
70433;SDS011;57876;47.792;12.960;2023-04-24T00:16:21;3.60;;;0.70;;
70433;SDS011;57876;47.792;12.960;2023-04-24T00:18:46;3.40;;;0.80;;
70433;SDS011;57876;47.792;12.960;2023-04-24T00:21:11;3.75;;;0.82;;
70433;SDS011;57876;47.792;12.960;2023-04-24T00:23:36;3.80;;;0.80;;
70433;SDS011;57876;47.792;12.960;2023-04-24T00:26:00;3.17;;;0.70;;
70433;SDS011;57876;47.792;12.960;2023-04-24T00:28:25;3.57;;;0.70;;
70433;SDS011;57876;47.792;12.960;2023-04-24T00:30:49;3.70;;;0.80;;
70433;SDS011;57876;47.792;12.960;2023-04-24T00:33:13;3.80;;;0.77;;
70433;SDS011;57876;47.792;12.960;2023-04-24T00:35:38;3.97;;;0.70;;
70433;SDS011;57876;47.792;12.960;2023-04-24T00:38:04;3.70;;;0.88;;
70433;SDS011;57876;47.792;12.960;2023-04-24T00:40:29;4.80;;;1.00;;
70433;SDS011;57876;47.792;12.960;2023-04-24T00:42:54;3.60;;;0.77;;
70433;SDS011;57876;47.792;12.960;2023-04-24T00:45:18;3.30;;;0.70;;
70433;SDS011;57876;47.792;12.960;2023-04-24T00:47:43;3.53;;;0.60;;
70433;SDS011;57876;47.792;12.960;2023-04-24T00:50:09;3.17;;;0.60;;
70433;SDS011;57876;47.792;12.960;2023-04-24T00:52:35;3.45;;;0.77;;
70433;SDS011;57876;47.792;12.960;2023-04-24T00:54:59;3.70;;;0.80;;
70433;SDS011;57876;47.792;12.960;2023-04-24T00:57:24;4.10;;;0.85;;
70433;SDS011;57876;47.792;12.960;2023-04-24T00:59:50;3.37;;;0.70;;
70433;SDS011;57876;47.792;12.960;2023-04-24T01:02:15;3.38;;;0.68;;
70433;SDS011;57876;47.792;12.960;2023-04-24T01:04:40;3.42;;;0.77;;
70433;SDS011;57876;47.792;12.960;2023-04-24T01:07:05;4.20;;;0.90;;
70433;SDS011;57876;47.792;12.960;2023-04-24T01:09:34;3.15;;;0.70;;
70433;SDS011;57876;47.792;12.960;2023-04-24T01:11:59;3.22;;;0.65;;
70433;SDS011;57876;47.792;12.960;2023-04-24T01:14:25;3.60;;;0.80;;
70433;SDS011;57876;47.792;12.960;2023-04-24T01:16:49;3.43;;;0.70;;
70433;SDS011;57876;47.792;12.960;2023-04-24T01:19:14;3.70;;;0.90;;
70433;SDS011;57876;47.792;12.960;2023-04-24T01:21:40;3.35;;;0.70;;
70433;SDS011;57876;47.792;12.960;2023-04-24T01:24:07;3.17;;;0.70;;
70433;SDS011;57876;47.792;12.960;2023-04-24T01:26:31;3.47;;;0.73;;
70433;SDS011;57876;47.792;12.960;2023-04-24T01:28:56;3.28;;;0.70;;
70433;SDS011;57876;47.792;12.960;2023-04-24T01:31:21;3.90;;;0.80;;
70433;SDS011;57876;47.792;12.960;2023-04-24T01:33:45;3.40;;;0.60;;
70433;SDS011;57876;47.792;12.960;2023-04-24T01:36:10;3.05;;;0.60;;
70433;SDS011;57876;47.792;12.960;2023-04-24T01:38:35;3.05;;;0.60;;
70433;SDS011;57876;47.792;12.960;2023-04-24T01:41:00;2.83;;;0.60;;
70433;SDS011;57876;47.792;12.960;2023-04-24T01:43:24;3.20;;;0.60;;
70433;SDS011;57876;47.792;12.960;2023-04-24T01:45:49;3.07;;;0.60;;
70433;SDS011;57876;47.792;12.960;2023-04-24T01:48:13;3.10;;;0.70;;
70433;SDS011;57876;47.792;12.960;2023-04-24T01:50:38;3.38;;;0.70;;
70433;SDS011;57876;47.792;12.960;2023-04-24T01:53:03;3.57;;;0.73;;
70433;SDS011;57876;47.792;12.960;2023-04-24T01:55:30;3.30;;;0.60;;
70433;SDS011;57876;47.792;12.960;2023-04-24T01:57:55;3.10;;;0.70;;
70433;SDS011;57876;47.792;12.960;2023-04-24T02:00:20;3.00;;;0.70;;
70433;SDS011;57876;47.792;12.960;2023-04-24T02:02:45;2.85;;;0.60;;
70433;SDS011;57876;47.792;12.960;2023-04-24T02:05:09;2.87;;;0.60;;
70433;SDS011;57876;47.792;12.960;2023-04-24T02:07:34;3.70;;;0.80;;
70433;SDS011;57876;47.792;12.960;2023-04-24T02:09:59;4.53;;;0.70;;
70433;SDS011;57876;47.792;12.960;2023-04-24T02:12:23;2.93;;;0.70;;
70433;SDS011;57876;47.792;12.960;2023-04-24T02:14:48;3.00;;;0.60;;
70433;SDS011;57876;47.792;12.960;2023-04-24T02:17:12;3.47;;;0.60;;
70433;SDS011;57876;47.792;12.960;2023-04-24T02:19:38;3.38;;;0.70;;
70433;SDS011;57876;47.792;12.960;2023-04-24T02:22:03;3.30;;;0.63;;
70433;SDS011;57876;47.792;12.960;2023-04-24T02:24:27;3.20;;;0.60;;
70433;SDS011;57876;47.792;12.960;2023-04-24T02:26:51;2.93;;;0.80;;
70433;SDS011;57876;47.792;12.960;2023-04-24T02:29:16;3.30;;;0.70;;
70433;SDS011;57876;47.792;12.960;2023-04-24T02:31:40;3.70;;;0.80;;
70433;SDS011;57876;47.792;12.960;2023-04-24T02:34:05;2.88;;;0.63;;
70433;SDS011;57876;47.792;12.960;2023-04-24T02:36:29;3.20;;;0.70;;
70433;SDS011;57876;47.792;12.960;2023-04-24T02:38:54;2.97;;;0.60;;
70433;SDS011;57876;47.792;12.960;2023-04-24T02:41:18;3.80;;;0.60;;
70433;SDS011;57876;47.792;12.960;2023-04-24T02:43:43;3.27;;;0.70;;
70433;SDS011;57876;47.792;12.960;2023-04-24T02:46:08;3.13;;;0.65;;
70433;SDS011;57876;47.792;12.960;2023-04-24T02:48:32;3.60;;;0.60;;
70433;SDS011;57876;47.792;12.960;2023-04-24T02:50:56;2.80;;;0.60;;
70433;SDS011;57876;47.792;12.960;2023-04-24T02:53:21;3.28;;;0.70;;
70433;SDS011;57876;47.792;12.960;2023-04-24T02:55:46;3.47;;;0.70;;
70433;SDS011;57876;47.792;12.960;2023-04-24T02:58:11;2.77;;;0.50;;
70433;SDS011;57876;47.792;12.960;2023-04-24T03:00:36;3.37;;;0.70;;
70433;SDS011;57876;47.792;12.960;2023-04-24T03:03:01;3.17;;;0.70;;
70433;SDS011;57876;47.792;12.960;2023-04-24T03:05:25;3.63;;;0.83;;
70433;SDS011;57876;47.792;12.960;2023-04-24T03:07:51;2.95;;;0.60;;
70433;SDS011;57876;47.792;12.960;2023-04-24T03:10:16;3.00;;;0.50;;
70433;SDS011;57876;47.792;12.960;2023-04-24T03:12:41;2.83;;;0.40;;
70433;SDS011;57876;47.792;12.960;2023-04-24T03:15:05;2.73;;;0.60;;
70433;SDS011;57876;47.792;12.960;2023-04-24T03:17:30;2.80;;;0.60;;
70433;SDS011;57876;47.792;12.960;2023-04-24T03:19:54;2.43;;;0.50;;
70433;SDS011;57876;47.792;12.960;2023-04-24T03:22:19;3.17;;;0.50;;
70433;SDS011;57876;47.792;12.960;2023-04-24T03:24:43;3.30;;;0.80;;
70433;SDS011;57876;47.792;12.960;2023-04-24T03:27:08;2.97;;;0.60;;
70433;SDS011;57876;47.792;12.960;2023-04-24T03:29:32;3.00;;;0.60;;
70433;SDS011;57876;47.792;12.960;2023-04-24T03:31:57;3.43;;;0.80;;
70433;SDS011;57876;47.792;12.960;2023-04-24T03:34:21;3.07;;;0.60;;
70433;SDS011;57876;47.792;12.960;2023-04-24T03:36:45;2.83;;;0.50;;
70433;SDS011;57876;47.792;12.960;2023-04-24T03:39:13;2.53;;;0.50;;
70433;SDS011;57876;47.792;12.960;2023-04-24T03:41:37;3.33;;;0.50;;
70433;SDS011;57876;47.792;12.960;2023-04-24T03:44:02;2.70;;;0.40;;
70433;SDS011;57876;47.792;12.960;2023-04-24T03:46:26;2.97;;;0.60;;
70433;SDS011;57876;47.792;12.960;2023-04-24T03:48:50;3.23;;;0.60;;
70433;SDS011;57876;47.792;12.960;2023-04-24T03:51:15;2.83;;;0.50;;
70433;SDS011;57876;47.792;12.960;2023-04-24T03:53:39;3.23;;;0.60;;
70433;SDS011;57876;47.792;12.960;2023-04-24T03:56:04;2.43;;;0.50;;
70433;SDS011;57876;47.792;12.960;2023-04-24T03:58:28;2.93;;;0.60;;
70433;SDS011;57876;47.792;12.960;2023-04-24T04:00:53;3.50;;;0.60;;
70433;SDS011;57876;47.792;12.960;2023-04-24T04:03:17;3.53;;;0.60;;
70433;SDS011;57876;47.792;12.960;2023-04-24T04:05:42;3.27;;;0.60;;
70433;SDS011;57876;47.792;12.960;2023-04-24T04:08:06;3.17;;;0.60;;
70433;SDS011;57876;47.792;12.960;2023-04-24T04:10:31;2.90;;;0.60;;
70433;SDS011;57876;47.792;12.960;2023-04-24T04:12:55;3.50;;;0.70;;
70433;SDS011;57876;47.792;12.960;2023-04-24T04:15:19;3.27;;;0.63;;
70433;SDS011;57876;47.792;12.960;2023-04-24T04:17:44;4.25;;;0.90;;
70433;SDS011;57876;47.792;12.960;2023-04-24T04:20:10;3.70;;;0.63;;
70433;SDS011;57876;47.792;12.960;2023-04-24T04:22:35;4.05;;;0.75;;
70433;SDS011;57876;47.792;12.960;2023-04-24T04:25:00;3.42;;;0.63;;
70433;SDS011;57876;47.792;12.960;2023-04-24T04:27:24;4.17;;;0.60;;
70433;SDS011;57876;47.792;12.960;2023-04-24T04:29:50;5.28;;;0.70;;
70433;SDS011;57876;47.792;12.960;2023-04-24T04:32:15;3.05;;;0.60;;
70433;SDS011;57876;47.792;12.960;2023-04-24T04:34:40;4.13;;;0.63;;
70433;SDS011;57876;47.792;12.960;2023-04-24T04:37:05;2.60;;;0.45;;
70433;SDS011;57876;47.792;12.960;2023-04-24T04:39:29;3.67;;;0.67;;
70433;SDS011;57876;47.792;12.960;2023-04-24T04:41:54;2.90;;;0.57;;
70433;SDS011;57876;47.792;12.960;2023-04-24T04:44:19;3.20;;;0.60;;
70433;SDS011;57876;47.792;12.960;2023-04-24T04:46:43;3.20;;;0.70;;
70433;SDS011;57876;47.792;12.960;2023-04-24T04:49:08;2.53;;;0.50;;
70433;SDS011;57876;47.792;12.960;2023-04-24T04:51:32;2.90;;;0.50;;
70433;SDS011;57876;47.792;12.960;2023-04-24T04:53:56;3.40;;;0.60;;
70433;SDS011;57876;47.792;12.960;2023-04-24T04:56:21;3.50;;;0.63;;
70433;SDS011;57876;47.792;12.960;2023-04-24T04:58:46;3.22;;;0.60;;
70433;SDS011;57876;47.792;12.960;2023-04-24T05:01:10;3.23;;;0.60;;
70433;SDS011;57876;47.792;12.960;2023-04-24T05:03:37;2.85;;;0.52;;
70433;SDS011;57876;47.792;12.960;2023-04-24T05:06:02;3.23;;;0.50;;
70433;SDS011;57876;47.792;12.960;2023-04-24T05:08:27;3.05;;;0.50;;
70433;SDS011;57876;47.792;12.960;2023-04-24T05:10:51;3.83;;;0.70;;
70433;SDS011;57876;47.792;12.960;2023-04-24T05:13:16;2.85;;;0.55;;
70433;SDS011;57876;47.792;12.960;2023-04-24T05:15:40;2.70;;;0.50;;
70433;SDS011;57876;47.792;12.960;2023-04-24T05:18:04;3.07;;;0.53;;
70433;SDS011;57876;47.792;12.960;2023-04-24T05:20:29;3.17;;;0.60;;
70433;SDS011;57876;47.792;12.960;2023-04-24T05:22:53;3.13;;;0.67;;
70433;SDS011;57876;47.792;12.960;2023-04-24T05:25:18;2.53;;;0.40;;
70433;SDS011;57876;47.792;12.960;2023-04-24T05:27:42;2.20;;;0.40;;
70433;SDS011;57876;47.792;12.960;2023-04-24T05:30:07;2.67;;;0.50;;
70433;SDS011;57876;47.792;12.960;2023-04-24T05:32:31;3.05;;;0.60;;
70433;SDS011;57876;47.792;12.960;2023-04-24T05:34:56;3.60;;;0.50;;
70433;SDS011;57876;47.792;12.960;2023-04-24T05:37:20;3.53;;;0.50;;
70433;SDS011;57876;47.792;12.960;2023-04-24T05:39:45;2.63;;;0.60;;
70433;SDS011;57876;47.792;12.960;2023-04-24T05:42:09;2.70;;;0.40;;
70433;SDS011;57876;47.792;12.960;2023-04-24T05:44:34;3.33;;;0.50;;
70433;SDS011;57876;47.792;12.960;2023-04-24T05:46:58;2.93;;;0.60;;
70433;SDS011;57876;47.792;12.960;2023-04-24T05:49:22;2.70;;;0.50;;
70433;SDS011;57876;47.792;12.960;2023-04-24T05:51:47;2.97;;;0.57;;
70433;SDS011;57876;47.792;12.960;2023-04-24T05:54:11;2.97;;;0.50;;
70433;SDS011;57876;47.792;12.960;2023-04-24T05:56:36;2.63;;;0.43;;
70433;SDS011;57876;47.792;12.960;2023-04-24T05:59:00;3.10;;;0.60;;
70433;SDS011;57876;47.792;12.960;2023-04-24T06:01:25;2.70;;;0.50;;
70433;SDS011;57876;47.792;12.960;2023-04-24T06:03:49;2.63;;;0.40;;
70433;SDS011;57876;47.792;12.960;2023-04-24T06:06:13;2.87;;;0.57;;
70433;SDS011;57876;47.792;12.960;2023-04-24T06:08:38;2.60;;;0.50;;
70433;SDS011;57876;47.792;12.960;2023-04-24T06:11:02;2.80;;;0.40;;
70433;SDS011;57876;47.792;12.960;2023-04-24T06:13:27;3.97;;;0.60;;
70433;SDS011;57876;47.792;12.960;2023-04-24T06:15:52;2.40;;;0.43;;
70433;SDS011;57876;47.792;12.960;2023-04-24T06:18:17;2.63;;;0.60;;
70433;SDS011;57876;47.792;12.960;2023-04-24T06:20:41;2.65;;;0.50;;
70433;SDS011;57876;47.792;12.960;2023-04-24T06:23:06;2.97;;;0.60;;
70433;SDS011;57876;47.792;12.960;2023-04-24T06:25:30;2.17;;;0.40;;
70433;SDS011;57876;47.792;12.960;2023-04-24T06:27:55;2.75;;;0.40;;
70433;SDS011;57876;47.792;12.960;2023-04-24T06:30:20;2.90;;;0.60;;
70433;SDS011;57876;47.792;12.960;2023-04-24T06:32:45;2.70;;;0.50;;
70433;SDS011;57876;47.792;12.960;2023-04-24T06:35:09;3.10;;;0.60;;
70433;SDS011;57876;47.792;12.960;2023-04-24T06:37:35;2.83;;;0.60;;
70433;SDS011;57876;47.792;12.960;2023-04-24T06:40:00;3.00;;;0.60;;
70433;SDS011;57876;47.792;12.960;2023-04-24T06:42:25;2.67;;;0.60;;
70433;SDS011;57876;47.792;12.960;2023-04-24T06:44:50;2.55;;;0.50;;
70433;SDS011;57876;47.792;12.960;2023-04-24T06:47:14;2.57;;;0.50;;
70433;SDS011;57876;47.792;12.960;2023-04-24T06:49:39;2.47;;;0.47;;
70433;SDS011;57876;47.792;12.960;2023-04-24T06:52:04;2.40;;;0.50;;
70433;SDS011;57876;47.792;12.960;2023-04-24T06:54:28;2.80;;;0.50;;
70433;SDS011;57876;47.792;12.960;2023-04-24T06:56:53;2.55;;;0.50;;
70433;SDS011;57876;47.792;12.960;2023-04-24T06:59:18;2.27;;;0.50;;
70433;SDS011;57876;47.792;12.960;2023-04-24T07:01:43;2.43;;;0.40;;
70433;SDS011;57876;47.792;12.960;2023-04-24T07:04:07;2.33;;;0.50;;
70433;SDS011;57876;47.792;12.960;2023-04-24T07:06:31;2.85;;;0.47;;
70433;SDS011;57876;47.792;12.960;2023-04-24T07:08:56;2.10;;;0.40;;
70433;SDS011;57876;47.792;12.960;2023-04-24T07:11:21;2.15;;;0.40;;
70433;SDS011;57876;47.792;12.960;2023-04-24T07:13:46;2.77;;;0.50;;
70433;SDS011;57876;47.792;12.960;2023-04-24T07:16:10;2.57;;;0.50;;
70433;SDS011;57876;47.792;12.960;2023-04-24T07:18:34;3.10;;;0.50;;
70433;SDS011;57876;47.792;12.960;2023-04-24T07:21:00;2.28;;;0.40;;
70433;SDS011;57876;47.792;12.960;2023-04-24T07:23:24;2.57;;;0.57;;
70433;SDS011;57876;47.792;12.960;2023-04-24T07:25:49;2.10;;;0.40;;
70433;SDS011;57876;47.792;12.960;2023-04-24T07:28:14;2.80;;;0.50;;
70433;SDS011;57876;47.792;12.960;2023-04-24T07:30:38;2.33;;;0.40;;
70433;SDS011;57876;47.792;12.960;2023-04-24T07:33:02;1.97;;;0.30;;
70433;SDS011;57876;47.792;12.960;2023-04-24T07:35:27;3.17;;;0.50;;
70433;SDS011;57876;47.792;12.960;2023-04-24T07:37:54;2.30;;;0.40;;
70433;SDS011;57876;47.792;12.960;2023-04-24T07:40:19;2.77;;;0.50;;
70433;SDS011;57876;47.792;12.960;2023-04-24T07:42:44;2.17;;;0.40;;
70433;SDS011;57876;47.792;12.960;2023-04-24T07:45:09;2.25;;;0.40;;
70433;SDS011;57876;47.792;12.960;2023-04-24T07:47:33;2.17;;;0.30;;
70433;SDS011;57876;47.792;12.960;2023-04-24T07:49:58;2.10;;;0.40;;
70433;SDS011;57876;47.792;12.960;2023-04-24T07:52:23;1.87;;;0.37;;
70433;SDS011;57876;47.792;12.960;2023-04-24T07:54:47;2.08;;;0.35;;
70433;SDS011;57876;47.792;12.960;2023-04-24T07:57:13;1.90;;;0.37;;
70433;SDS011;57876;47.792;12.960;2023-04-24T07:59:38;2.40;;;0.40;;
70433;SDS011;57876;47.792;12.960;2023-04-24T08:02:02;1.70;;;0.30;;
70433;SDS011;57876;47.792;12.960;2023-04-24T08:04:26;2.47;;;0.43;;
70433;SDS011;57876;47.792;12.960;2023-04-24T08:06:51;2.47;;;0.40;;
70433;SDS011;57876;47.792;12.960;2023-04-24T08:09:15;2.47;;;0.40;;
70433;SDS011;57876;47.792;12.960;2023-04-24T08:11:40;2.00;;;0.30;;
70433;SDS011;57876;47.792;12.960;2023-04-24T08:14:04;3.97;;;0.50;;
70433;SDS011;57876;47.792;12.960;2023-04-24T08:16:28;2.80;;;0.50;;
70433;SDS011;57876;47.792;12.960;2023-04-24T08:18:53;2.30;;;0.45;;
70433;SDS011;57876;47.792;12.960;2023-04-24T08:21:17;2.47;;;0.50;;
70433;SDS011;57876;47.792;12.960;2023-04-24T08:23:43;3.23;;;0.60;;
70433;SDS011;57876;47.792;12.960;2023-04-24T08:26:07;4.90;;;0.90;;
70433;SDS011;57876;47.792;12.960;2023-04-24T08:28:32;2.40;;;0.30;;
70433;SDS011;57876;47.792;12.960;2023-04-24T08:30:56;2.43;;;0.40;;
70433;SDS011;57876;47.792;12.960;2023-04-24T08:33:22;3.10;;;0.40;;
70433;SDS011;57876;47.792;12.960;2023-04-24T08:35:47;4.40;;;0.45;;
70433;SDS011;57876;47.792;12.960;2023-04-24T08:38:11;1.87;;;0.30;;
70433;SDS011;57876;47.792;12.960;2023-04-24T08:40:36;1.90;;;0.33;;
70433;SDS011;57876;47.792;12.960;2023-04-24T08:43:01;4.10;;;0.32;;
70433;SDS011;57876;47.792;12.960;2023-04-24T08:45:26;2.25;;;0.47;;
70433;SDS011;57876;47.792;12.960;2023-04-24T08:47:50;2.57;;;0.47;;
70433;SDS011;57876;47.792;12.960;2023-04-24T08:50:17;2.80;;;0.30;;
70433;SDS011;57876;47.792;12.960;2023-04-24T08:52:42;1.87;;;0.30;;
70433;SDS011;57876;47.792;12.960;2023-04-24T08:55:06;3.58;;;0.50;;
70433;SDS011;57876;47.792;12.960;2023-04-24T08:57:31;3.27;;;0.50;;
70433;SDS011;57876;47.792;12.960;2023-04-24T08:59:57;4.35;;;0.40;;
70433;SDS011;57876;47.792;12.960;2023-04-24T09:02:22;4.40;;;0.50;;
70433;SDS011;57876;47.792;12.960;2023-04-24T09:04:47;6.18;;;0.52;;
70433;SDS011;57876;47.792;12.960;2023-04-24T09:07:14;4.93;;;0.47;;
70433;SDS011;57876;47.792;12.960;2023-04-24T09:09:40;6.88;;;0.70;;
70433;SDS011;57876;47.792;12.960;2023-04-24T09:12:05;3.78;;;0.60;;
70433;SDS011;57876;47.792;12.960;2023-04-24T09:14:33;3.90;;;0.65;;
70433;SDS011;57876;47.792;12.960;2023-04-24T09:16:57;4.40;;;0.43;;
70433;SDS011;57876;47.792;12.960;2023-04-24T09:19:22;5.43;;;0.60;;
70433;SDS011;57876;47.792;12.960;2023-04-24T09:21:46;6.28;;;1.02;;
70433;SDS011;57876;47.792;12.960;2023-04-24T09:24:17;5.03;;;0.73;;
70433;SDS011;57876;47.792;12.960;2023-04-24T09:26:46;5.20;;;0.65;;
70433;SDS011;57876;47.792;12.960;2023-04-24T09:29:17;5.07;;;0.67;;
70433;SDS011;57876;47.792;12.960;2023-04-24T09:31:43;4.93;;;0.77;;
70433;SDS011;57876;47.792;12.960;2023-04-24T09:34:08;8.38;;;0.98;;
70433;SDS011;57876;47.792;12.960;2023-04-24T09:36:40;5.03;;;1.33;;
70433;SDS011;57876;47.792;12.960;2023-04-24T09:39:07;5.68;;;0.77;;
70433;SDS011;57876;47.792;12.960;2023-04-24T09:41:35;7.80;;;0.60;;
70433;SDS011;57876;47.792;12.960;2023-04-24T09:44:17;4.93;;;0.77;;
70433;SDS011;57876;47.792;12.960;2023-04-24T09:46:45;3.97;;;0.67;;
70433;SDS011;57876;47.792;12.960;2023-04-24T09:49:15;6.25;;;0.80;;
70433;SDS011;57876;47.792;12.960;2023-04-24T09:51:40;3.63;;;0.60;;
70433;SDS011;57876;47.792;12.960;2023-04-24T09:54:11;6.07;;;0.63;;
70433;SDS011;57876;47.792;12.960;2023-04-24T09:56:39;6.83;;;1.07;;
70433;SDS011;57876;47.792;12.960;2023-04-24T09:59:23;15.77;;;2.45;;
70433;SDS011;57876;47.792;12.960;2023-04-24T10:01:48;29.10;;;4.60;;
70433;SDS011;57876;47.792;12.960;2023-04-24T10:06:45;14.77;;;2.33;;
70433;SDS011;57876;47.792;12.960;2023-04-24T10:09:10;18.60;;;2.67;;
70433;SDS011;57876;47.792;12.960;2023-04-24T10:11:37;18.80;;;3.20;;
70433;SDS011;57876;47.792;12.960;2023-04-24T10:14:06;25.73;;;3.57;;
70433;SDS011;57876;47.792;12.960;2023-04-24T10:16:34;27.83;;;4.30;;
70433;SDS011;57876;47.792;12.960;2023-04-24T10:18:59;19.77;;;3.47;;
70433;SDS011;57876;47.792;12.960;2023-04-24T10:21:24;25.60;;;3.60;;
70433;SDS011;57876;47.792;12.960;2023-04-24T10:23:50;17.83;;;2.90;;
70433;SDS011;57876;47.792;12.960;2023-04-24T10:26:15;19.58;;;3.45;;
70433;SDS011;57876;47.792;12.960;2023-04-24T10:28:41;19.50;;;3.67;;
70433;SDS011;57876;47.792;12.960;2023-04-24T10:31:09;25.83;;;3.07;;
70433;SDS011;57876;47.792;12.960;2023-04-24T10:33:35;24.20;;;3.53;;
70433;SDS011;57876;47.792;12.960;2023-04-24T10:36:00;19.08;;;3.13;;
70433;SDS011;57876;47.792;12.960;2023-04-24T10:38:26;20.90;;;3.40;;
70433;SDS011;57876;47.792;12.960;2023-04-24T10:43:43;21.50;;;3.70;;
70433;SDS011;57876;47.792;12.960;2023-04-24T10:46:08;19.27;;;2.80;;
70433;SDS011;57876;47.792;12.960;2023-04-24T10:48:34;19.35;;;3.35;;
70433;SDS011;57876;47.792;12.960;2023-04-24T10:50:58;17.77;;;2.70;;
70433;SDS011;57876;47.792;12.960;2023-04-24T10:53:27;17.33;;;3.50;;
70433;SDS011;57876;47.792;12.960;2023-04-24T10:56:02;13.63;;;2.63;;
70433;SDS011;57876;47.792;12.960;2023-04-24T10:58:41;15.25;;;3.13;;
70433;SDS011;57876;47.792;12.960;2023-04-24T11:03:53;15.55;;;2.60;;
70433;SDS011;57876;47.792;12.960;2023-04-24T11:06:20;15.63;;;2.72;;
70433;SDS011;57876;47.792;12.960;2023-04-24T11:08:58;13.13;;;2.67;;
70433;SDS011;57876;47.792;12.960;2023-04-24T11:11:30;17.63;;;3.13;;
70433;SDS011;57876;47.792;12.960;2023-04-24T11:16:32;16.67;;;2.80;;
70433;SDS011;57876;47.792;12.960;2023-04-24T11:21:39;19.85;;;3.00;;
70433;SDS011;57876;47.792;12.960;2023-04-24T11:27:38;13.55;;;3.33;;
70433;SDS011;57876;47.792;12.960;2023-04-24T11:29:46;14.55;;;2.75;;
70433;SDS011;57876;47.792;12.960;2023-04-24T11:32:14;10.63;;;2.45;;
70433;SDS011;57876;47.792;12.960;2023-04-24T11:35:01;16.80;;;3.03;;
70433;SDS011;57876;47.792;12.960;2023-04-24T11:37:29;11.17;;;2.73;;
70433;SDS011;57876;47.792;12.960;2023-04-24T11:39:58;13.63;;;2.80;;
70433;SDS011;57876;47.792;12.960;2023-04-24T11:42:23;11.82;;;2.70;;
70433;SDS011;57876;47.792;12.960;2023-04-24T11:44:49;12.02;;;2.40;;
70433;SDS011;57876;47.792;12.960;2023-04-24T11:47:15;11.15;;;2.08;;
70433;SDS011;57876;47.792;12.960;2023-04-24T11:49:40;13.30;;;2.70;;
70433;SDS011;57876;47.792;12.960;2023-04-24T11:52:04;10.07;;;2.00;;
70433;SDS011;57876;47.792;12.960;2023-04-24T11:54:29;13.05;;;2.65;;
70433;SDS011;57876;47.792;12.960;2023-04-24T11:56:53;12.27;;;2.83;;
70433;SDS011;57876;47.792;12.960;2023-04-24T11:59:20;11.63;;;2.47;;
70433;SDS011;57876;47.792;12.960;2023-04-24T12:01:48;12.20;;;2.77;;
70433;SDS011;57876;47.792;12.960;2023-04-24T12:04:13;14.48;;;2.97;;
70433;SDS011;57876;47.792;12.960;2023-04-24T12:06:38;16.05;;;2.97;;
70433;SDS011;57876;47.792;12.960;2023-04-24T12:09:02;15.07;;;2.60;;
70433;SDS011;57876;47.792;12.960;2023-04-24T12:11:27;11.53;;;2.30;;
70433;SDS011;57876;47.792;12.960;2023-04-24T12:13:51;12.23;;;2.42;;
70433;SDS011;57876;47.792;12.960;2023-04-24T12:16:16;12.67;;;2.03;;
70433;SDS011;57876;47.792;12.960;2023-04-24T12:18:41;13.33;;;2.60;;
70433;SDS011;57876;47.792;12.960;2023-04-24T12:21:14;14.38;;;3.10;;
70433;SDS011;57876;47.792;12.960;2023-04-24T12:23:50;12.82;;;2.70;;
70433;SDS011;57876;47.792;12.960;2023-04-24T12:26:18;13.63;;;3.37;;
70433;SDS011;57876;47.792;12.960;2023-04-24T12:28:45;9.43;;;2.25;;
70433;SDS011;57876;47.792;12.960;2023-04-24T12:31:11;14.35;;;2.45;;
70433;SDS011;57876;47.792;12.960;2023-04-24T12:33:35;12.53;;;2.67;;
70433;SDS011;57876;47.792;12.960;2023-04-24T12:36:00;15.47;;;2.97;;
70433;SDS011;57876;47.792;12.960;2023-04-24T12:38:25;10.40;;;2.15;;
70433;SDS011;57876;47.792;12.960;2023-04-24T12:41:03;12.38;;;2.42;;
70433;SDS011;57876;47.792;12.960;2023-04-24T12:43:37;11.20;;;2.47;;
70433;SDS011;57876;47.792;12.960;2023-04-24T12:46:02;10.75;;;2.38;;
70433;SDS011;57876;47.792;12.960;2023-04-24T12:48:27;13.00;;;2.90;;
70433;SDS011;57876;47.792;12.960;2023-04-24T12:50:52;9.13;;;2.28;;
70433;SDS011;57876;47.792;12.960;2023-04-24T12:53:16;9.93;;;2.20;;
70433;SDS011;57876;47.792;12.960;2023-04-24T12:55:41;7.95;;;2.50;;
70433;SDS011;57876;47.792;12.960;2023-04-24T12:58:05;11.07;;;2.40;;
70433;SDS011;57876;47.792;12.960;2023-04-24T13:00:30;10.93;;;2.50;;
70433;SDS011;57876;47.792;12.960;2023-04-24T13:02:54;10.98;;;2.30;;
70433;SDS011;57876;47.792;12.960;2023-04-24T13:05:19;8.70;;;2.53;;
70433;SDS011;57876;47.792;12.960;2023-04-24T13:07:44;10.30;;;2.30;;
70433;SDS011;57876;47.792;12.960;2023-04-24T13:10:08;11.03;;;2.10;;
70433;SDS011;57876;47.792;12.960;2023-04-24T13:12:34;7.90;;;1.70;;
70433;SDS011;57876;47.792;12.960;2023-04-24T13:14:58;9.93;;;2.10;;
70433;SDS011;57876;47.792;12.960;2023-04-24T13:17:23;9.82;;;2.17;;
70433;SDS011;57876;47.792;12.960;2023-04-24T13:19:49;11.67;;;2.43;;
70433;SDS011;57876;47.792;12.960;2023-04-24T13:22:14;10.10;;;2.05;;
70433;SDS011;57876;47.792;12.960;2023-04-24T13:24:38;8.37;;;1.70;;
70433;SDS011;57876;47.792;12.960;2023-04-24T13:27:06;8.85;;;2.00;;
70433;SDS011;57876;47.792;12.960;2023-04-24T13:29:31;9.60;;;2.17;;
70433;SDS011;57876;47.792;12.960;2023-04-24T13:31:56;9.82;;;1.98;;
70433;SDS011;57876;47.792;12.960;2023-04-24T13:34:24;7.83;;;2.00;;
70433;SDS011;57876;47.792;12.960;2023-04-24T13:36:53;11.57;;;2.10;;
70433;SDS011;57876;47.792;12.960;2023-04-24T13:39:18;10.13;;;2.13;;
70433;SDS011;57876;47.792;12.960;2023-04-24T13:41:43;12.33;;;2.43;;
70433;SDS011;57876;47.792;12.960;2023-04-24T13:44:08;9.23;;;2.10;;
70433;SDS011;57876;47.792;12.960;2023-04-24T13:46:33;7.40;;;1.90;;
70433;SDS011;57876;47.792;12.960;2023-04-24T13:48:57;10.35;;;2.33;;
70433;SDS011;57876;47.792;12.960;2023-04-24T13:51:23;7.93;;;1.93;;
70433;SDS011;57876;47.792;12.960;2023-04-24T13:53:51;10.10;;;1.83;;
70433;SDS011;57876;47.792;12.960;2023-04-24T13:56:15;13.80;;;2.10;;
70433;SDS011;57876;47.792;12.960;2023-04-24T13:58:39;9.98;;;1.77;;
70433;SDS011;57876;47.792;12.960;2023-04-24T14:01:04;8.90;;;1.87;;
70433;SDS011;57876;47.792;12.960;2023-04-24T14:03:29;9.57;;;1.98;;
70433;SDS011;57876;47.792;12.960;2023-04-24T14:05:53;8.17;;;1.60;;
70433;SDS011;57876;47.792;12.960;2023-04-24T14:08:18;8.88;;;1.75;;
70433;SDS011;57876;47.792;12.960;2023-04-24T14:10:42;8.47;;;1.77;;
70433;SDS011;57876;47.792;12.960;2023-04-24T14:13:07;8.73;;;2.00;;
70433;SDS011;57876;47.792;12.960;2023-04-24T14:15:31;9.20;;;2.07;;
70433;SDS011;57876;47.792;12.960;2023-04-24T14:17:56;7.53;;;1.80;;
70433;SDS011;57876;47.792;12.960;2023-04-24T14:20:20;7.53;;;1.73;;
70433;SDS011;57876;47.792;12.960;2023-04-24T14:22:45;6.60;;;1.77;;
70433;SDS011;57876;47.792;12.960;2023-04-24T14:25:10;10.85;;;2.03;;
70433;SDS011;57876;47.792;12.960;2023-04-24T14:27:34;7.03;;;1.60;;
70433;SDS011;57876;47.792;12.960;2023-04-24T14:29:59;8.30;;;1.90;;
70433;SDS011;57876;47.792;12.960;2023-04-24T14:32:23;8.93;;;1.97;;
70433;SDS011;57876;47.792;12.960;2023-04-24T14:34:48;8.27;;;1.97;;
70433;SDS011;57876;47.792;12.960;2023-04-24T14:37:12;7.07;;;1.57;;